sensor_id;sensor_type;location;lat;lon;timestamp;P1;durP1;ratioP1;P2;durP2;ratioP2
33327;SDS011;19692;52.998;9.116;2023-05-10T00:02:09;4.60;;;3.33;;
33327;SDS011;19692;52.998;9.116;2023-05-10T00:04:34;3.97;;;3.13;;
33327;SDS011;19692;52.998;9.116;2023-05-10T00:07:00;7.20;;;3.53;;
33327;SDS011;19692;52.998;9.116;2023-05-10T00:09:26;4.40;;;3.60;;
33327;SDS011;19692;52.998;9.116;2023-05-10T00:11:52;4.10;;;3.70;;
33327;SDS011;19692;52.998;9.116;2023-05-10T00:14:17;5.07;;;3.00;;
33327;SDS011;19692;52.998;9.116;2023-05-10T00:16:43;3.30;;;3.00;;
33327;SDS011;19692;52.998;9.116;2023-05-10T00:19:10;6.27;;;3.00;;
33327;SDS011;19692;52.998;9.116;2023-05-10T00:21:36;4.37;;;3.40;;
33327;SDS011;19692;52.998;9.116;2023-05-10T00:24:01;4.07;;;3.20;;
33327;SDS011;19692;52.998;9.116;2023-05-10T00:26:27;4.73;;;3.40;;
33327;SDS011;19692;52.998;9.116;2023-05-10T00:28:53;4.20;;;3.27;;
33327;SDS011;19692;52.998;9.116;2023-05-10T00:31:19;3.70;;;3.40;;
33327;SDS011;19692;52.998;9.116;2023-05-10T00:33:45;4.87;;;4.30;;
33327;SDS011;19692;52.998;9.116;2023-05-10T00:36:10;4.03;;;3.13;;
33327;SDS011;19692;52.998;9.116;2023-05-10T00:38:36;4.57;;;3.57;;
33327;SDS011;19692;52.998;9.116;2023-05-10T00:41:02;4.47;;;3.73;;
33327;SDS011;19692;52.998;9.116;2023-05-10T00:43:28;5.80;;;3.70;;
33327;SDS011;19692;52.998;9.116;2023-05-10T00:45:54;5.97;;;3.97;;
33327;SDS011;19692;52.998;9.116;2023-05-10T00:48:20;4.63;;;3.60;;
33327;SDS011;19692;52.998;9.116;2023-05-10T00:50:46;4.50;;;3.37;;
33327;SDS011;19692;52.998;9.116;2023-05-10T00:53:13;6.77;;;3.67;;
33327;SDS011;19692;52.998;9.116;2023-05-10T00:55:40;4.90;;;3.57;;
33327;SDS011;19692;52.998;9.116;2023-05-10T00:58:06;5.73;;;3.83;;
33327;SDS011;19692;52.998;9.116;2023-05-10T01:00:33;4.03;;;3.67;;
33327;SDS011;19692;52.998;9.116;2023-05-10T01:02:59;4.20;;;3.80;;
33327;SDS011;19692;52.998;9.116;2023-05-10T01:05:25;4.53;;;3.70;;
33327;SDS011;19692;52.998;9.116;2023-05-10T01:07:52;4.63;;;3.43;;
33327;SDS011;19692;52.998;9.116;2023-05-10T01:10:18;6.33;;;3.53;;
33327;SDS011;19692;52.998;9.116;2023-05-10T01:12:45;6.30;;;3.83;;
33327;SDS011;19692;52.998;9.116;2023-05-10T01:15:12;4.03;;;3.33;;
33327;SDS011;19692;52.998;9.116;2023-05-10T01:17:39;4.10;;;3.60;;
33327;SDS011;19692;52.998;9.116;2023-05-10T01:20:07;8.73;;;4.70;;
33327;SDS011;19692;52.998;9.116;2023-05-10T01:23:03;4.23;;;3.90;;
33327;SDS011;19692;52.998;9.116;2023-05-10T01:25:32;6.07;;;4.07;;
33327;SDS011;19692;52.998;9.116;2023-05-10T01:28:43;4.93;;;3.47;;
33327;SDS011;19692;52.998;9.116;2023-05-10T01:31:59;4.60;;;3.50;;
33327;SDS011;19692;52.998;9.116;2023-05-10T01:34:46;4.13;;;3.73;;
33327;SDS011;19692;52.998;9.116;2023-05-10T01:37:21;6.00;;;4.00;;
33327;SDS011;19692;52.998;9.116;2023-05-10T01:40:08;5.63;;;4.23;;
33327;SDS011;19692;52.998;9.116;2023-05-10T01:43:02;4.73;;;3.70;;
33327;SDS011;19692;52.998;9.116;2023-05-10T01:45:37;6.20;;;3.80;;
33327;SDS011;19692;52.998;9.116;2023-05-10T01:48:29;6.00;;;3.80;;
33327;SDS011;19692;52.998;9.116;2023-05-10T01:50:56;4.83;;;4.33;;
33327;SDS011;19692;52.998;9.116;2023-05-10T01:53:23;4.67;;;3.50;;
33327;SDS011;19692;52.998;9.116;2023-05-10T01:55:51;4.37;;;3.77;;
33327;SDS011;19692;52.998;9.116;2023-05-10T01:58:26;6.07;;;4.40;;
33327;SDS011;19692;52.998;9.116;2023-05-10T02:00:55;4.13;;;3.67;;
33327;SDS011;19692;52.998;9.116;2023-05-10T02:03:25;7.57;;;3.87;;
33327;SDS011;19692;52.998;9.116;2023-05-10T02:05:53;4.43;;;3.70;;
33327;SDS011;19692;52.998;9.116;2023-05-10T02:08:21;4.70;;;3.70;;
33327;SDS011;19692;52.998;9.116;2023-05-10T02:10:47;6.60;;;4.00;;
33327;SDS011;19692;52.998;9.116;2023-05-10T02:13:16;4.27;;;3.67;;
33327;SDS011;19692;52.998;9.116;2023-05-10T02:15:44;4.17;;;3.77;;
33327;SDS011;19692;52.998;9.116;2023-05-10T02:18:13;4.20;;;3.80;;
33327;SDS011;19692;52.998;9.116;2023-05-10T02:20:40;6.13;;;3.60;;
33327;SDS011;19692;52.998;9.116;2023-05-10T02:23:08;7.30;;;3.70;;
33327;SDS011;19692;52.998;9.116;2023-05-10T02:25:36;5.90;;;3.80;;
33327;SDS011;19692;52.998;9.116;2023-05-10T02:28:04;4.70;;;4.00;;
33327;SDS011;19692;52.998;9.116;2023-05-10T02:30:32;4.27;;;3.87;;
33327;SDS011;19692;52.998;9.116;2023-05-10T02:33:00;4.40;;;3.97;;
33327;SDS011;19692;52.998;9.116;2023-05-10T02:35:29;4.40;;;4.00;;
33327;SDS011;19692;52.998;9.116;2023-05-10T02:37:56;4.80;;;4.07;;
33327;SDS011;19692;52.998;9.116;2023-05-10T02:40:23;4.50;;;4.00;;
33327;SDS011;19692;52.998;9.116;2023-05-10T02:42:52;4.67;;;4.17;;
33327;SDS011;19692;52.998;9.116;2023-05-10T02:45:21;7.00;;;4.27;;
33327;SDS011;19692;52.998;9.116;2023-05-10T02:47:53;5.67;;;4.43;;
33327;SDS011;19692;52.998;9.116;2023-05-10T02:50:19;5.90;;;4.30;;
33327;SDS011;19692;52.998;9.116;2023-05-10T02:52:47;5.93;;;5.03;;
33327;SDS011;19692;52.998;9.116;2023-05-10T02:55:16;6.83;;;4.17;;
33327;SDS011;19692;52.998;9.116;2023-05-10T02:57:57;5.20;;;4.20;;
33327;SDS011;19692;52.998;9.116;2023-05-10T03:00:25;6.70;;;4.17;;
33327;SDS011;19692;52.998;9.116;2023-05-10T03:02:51;4.87;;;4.30;;
33327;SDS011;19692;52.998;9.116;2023-05-10T03:05:17;5.07;;;3.77;;
33327;SDS011;19692;52.998;9.116;2023-05-10T03:07:44;6.70;;;4.13;;
33327;SDS011;19692;52.998;9.116;2023-05-10T03:10:11;4.90;;;4.00;;
33327;SDS011;19692;52.998;9.116;2023-05-10T03:15:47;5.20;;;4.13;;
33327;SDS011;19692;52.998;9.116;2023-05-10T03:18:48;7.40;;;4.73;;
33327;SDS011;19692;52.998;9.116;2023-05-10T03:21:20;5.53;;;4.20;;
33327;SDS011;19692;52.998;9.116;2023-05-10T03:23:52;6.50;;;4.47;;
33327;SDS011;19692;52.998;9.116;2023-05-10T03:26:26;5.60;;;4.30;;
33327;SDS011;19692;52.998;9.116;2023-05-10T03:28:53;8.53;;;4.70;;
33327;SDS011;19692;52.998;9.116;2023-05-10T03:31:20;5.00;;;4.40;;
33327;SDS011;19692;52.998;9.116;2023-05-10T03:33:49;9.60;;;5.73;;
33327;SDS011;19692;52.998;9.116;2023-05-10T03:36:16;8.00;;;4.97;;
33327;SDS011;19692;52.998;9.116;2023-05-10T03:38:43;8.23;;;4.50;;
33327;SDS011;19692;52.998;9.116;2023-05-10T03:41:09;4.57;;;4.17;;
33327;SDS011;19692;52.998;9.116;2023-05-10T03:43:34;5.70;;;4.60;;
33327;SDS011;19692;52.998;9.116;2023-05-10T03:46:04;8.00;;;4.90;;
33327;SDS011;19692;52.998;9.116;2023-05-10T03:48:30;7.43;;;5.03;;
33327;SDS011;19692;52.998;9.116;2023-05-10T03:50:57;5.03;;;4.40;;
33327;SDS011;19692;52.998;9.116;2023-05-10T03:53:23;6.87;;;5.43;;
33327;SDS011;19692;52.998;9.116;2023-05-10T03:55:49;5.17;;;4.77;;
33327;SDS011;19692;52.998;9.116;2023-05-10T03:58:15;5.43;;;4.30;;
33327;SDS011;19692;52.998;9.116;2023-05-10T04:00:41;5.37;;;4.80;;
33327;SDS011;19692;52.998;9.116;2023-05-10T04:03:12;6.20;;;4.63;;
33327;SDS011;19692;52.998;9.116;2023-05-10T04:05:38;6.53;;;4.90;;
33327;SDS011;19692;52.998;9.116;2023-05-10T04:08:04;8.90;;;5.07;;
33327;SDS011;19692;52.998;9.116;2023-05-10T04:10:30;7.30;;;5.33;;
33327;SDS011;19692;52.998;9.116;2023-05-10T04:12:56;5.73;;;5.00;;
33327;SDS011;19692;52.998;9.116;2023-05-10T04:15:22;5.97;;;5.23;;
33327;SDS011;19692;52.998;9.116;2023-05-10T04:17:48;6.37;;;4.90;;
33327;SDS011;19692;52.998;9.116;2023-05-10T04:20:14;6.43;;;5.50;;
33327;SDS011;19692;52.998;9.116;2023-05-10T04:22:40;5.40;;;4.90;;
33327;SDS011;19692;52.998;9.116;2023-05-10T04:25:06;5.87;;;5.27;;
33327;SDS011;19692;52.998;9.116;2023-05-10T04:27:32;6.50;;;5.00;;
33327;SDS011;19692;52.998;9.116;2023-05-10T04:29:58;6.13;;;5.53;;
33327;SDS011;19692;52.998;9.116;2023-05-10T04:32:24;5.93;;;5.07;;
33327;SDS011;19692;52.998;9.116;2023-05-10T04:34:49;8.27;;;5.07;;
33327;SDS011;19692;52.998;9.116;2023-05-10T04:37:18;5.47;;;4.83;;
33327;SDS011;19692;52.998;9.116;2023-05-10T04:39:44;10.97;;;5.60;;
33327;SDS011;19692;52.998;9.116;2023-05-10T04:42:09;5.70;;;5.20;;
33327;SDS011;19692;52.998;9.116;2023-05-10T04:44:36;5.90;;;5.30;;
33327;SDS011;19692;52.998;9.116;2023-05-10T04:47:02;5.90;;;5.30;;
33327;SDS011;19692;52.998;9.116;2023-05-10T04:49:28;6.10;;;5.57;;
33327;SDS011;19692;52.998;9.116;2023-05-10T04:51:54;8.57;;;6.10;;
33327;SDS011;19692;52.998;9.116;2023-05-10T04:54:21;7.63;;;6.17;;
33327;SDS011;19692;52.998;9.116;2023-05-10T04:56:47;8.27;;;5.97;;
33327;SDS011;19692;52.998;9.116;2023-05-10T04:59:12;7.20;;;6.50;;
33327;SDS011;19692;52.998;9.116;2023-05-10T05:01:39;7.47;;;6.17;;
33327;SDS011;19692;52.998;9.116;2023-05-10T05:04:04;10.13;;;6.77;;
33327;SDS011;19692;52.998;9.116;2023-05-10T05:06:30;7.83;;;7.13;;
33327;SDS011;19692;52.998;9.116;2023-05-10T05:08:56;6.77;;;6.17;;
33327;SDS011;19692;52.998;9.116;2023-05-10T05:11:22;6.57;;;5.97;;
33327;SDS011;19692;52.998;9.116;2023-05-10T05:13:47;7.07;;;6.40;;
33327;SDS011;19692;52.998;9.116;2023-05-10T05:16:13;7.60;;;6.80;;
33327;SDS011;19692;52.998;9.116;2023-05-10T05:18:39;8.70;;;6.73;;
33327;SDS011;19692;52.998;9.116;2023-05-10T05:21:38;7.60;;;6.73;;
33327;SDS011;19692;52.998;9.116;2023-05-10T05:23:57;8.70;;;6.83;;
33327;SDS011;19692;52.998;9.116;2023-05-10T05:26:23;7.67;;;6.97;;
33327;SDS011;19692;52.998;9.116;2023-05-10T05:28:49;8.30;;;7.17;;
33327;SDS011;19692;52.998;9.116;2023-05-10T05:31:17;8.93;;;7.57;;
33327;SDS011;19692;52.998;9.116;2023-05-10T05:33:43;9.03;;;7.53;;
33327;SDS011;19692;52.998;9.116;2023-05-10T05:36:09;9.67;;;7.63;;
33327;SDS011;19692;52.998;9.116;2023-05-10T05:38:35;8.73;;;7.50;;
33327;SDS011;19692;52.998;9.116;2023-05-10T05:41:01;9.17;;;7.77;;
33327;SDS011;19692;52.998;9.116;2023-05-10T05:43:27;7.67;;;6.97;;
33327;SDS011;19692;52.998;9.116;2023-05-10T05:45:53;8.20;;;7.50;;
33327;SDS011;19692;52.998;9.116;2023-05-10T05:48:19;8.63;;;7.73;;
33327;SDS011;19692;52.998;9.116;2023-05-10T05:50:45;10.37;;;7.10;;
33327;SDS011;19692;52.998;9.116;2023-05-10T05:53:11;11.97;;;10.73;;
33327;SDS011;19692;52.998;9.116;2023-05-10T05:55:37;9.13;;;8.23;;
33327;SDS011;19692;52.998;9.116;2023-05-10T05:58:03;11.97;;;9.53;;
33327;SDS011;19692;52.998;9.116;2023-05-10T06:00:28;9.93;;;7.80;;
33327;SDS011;19692;52.998;9.116;2023-05-10T06:02:54;10.50;;;8.10;;
33327;SDS011;19692;52.998;9.116;2023-05-10T06:05:20;10.40;;;8.33;;
33327;SDS011;19692;52.998;9.116;2023-05-10T06:07:45;9.23;;;8.33;;
33327;SDS011;19692;52.998;9.116;2023-05-10T06:10:11;8.83;;;8.03;;
33327;SDS011;19692;52.998;9.116;2023-05-10T06:12:37;12.20;;;7.87;;
33327;SDS011;19692;52.998;9.116;2023-05-10T06:15:03;8.67;;;7.80;;
33327;SDS011;19692;52.998;9.116;2023-05-10T06:17:30;9.27;;;8.37;;
33327;SDS011;19692;52.998;9.116;2023-05-10T06:19:55;10.43;;;8.70;;
33327;SDS011;19692;52.998;9.116;2023-05-10T06:22:21;10.27;;;8.73;;
33327;SDS011;19692;52.998;9.116;2023-05-10T06:24:48;9.37;;;8.47;;
33327;SDS011;19692;52.998;9.116;2023-05-10T06:27:14;10.03;;;9.07;;
33327;SDS011;19692;52.998;9.116;2023-05-10T06:29:40;10.20;;;8.70;;
33327;SDS011;19692;52.998;9.116;2023-05-10T06:32:05;10.73;;;9.33;;
33327;SDS011;19692;52.998;9.116;2023-05-10T06:34:31;11.00;;;9.53;;
33327;SDS011;19692;52.998;9.116;2023-05-10T06:36:57;10.33;;;9.30;;
33327;SDS011;19692;52.998;9.116;2023-05-10T06:39:23;11.77;;;10.60;;
33327;SDS011;19692;52.998;9.116;2023-05-10T06:41:51;12.10;;;10.90;;
33327;SDS011;19692;52.998;9.116;2023-05-10T06:44:17;11.67;;;10.37;;
33327;SDS011;19692;52.998;9.116;2023-05-10T06:46:43;11.80;;;10.60;;
33327;SDS011;19692;52.998;9.116;2023-05-10T06:49:09;10.77;;;9.70;;
33327;SDS011;19692;52.998;9.116;2023-05-10T06:51:35;11.30;;;10.10;;
33327;SDS011;19692;52.998;9.116;2023-05-10T06:54:00;11.20;;;9.93;;
33327;SDS011;19692;52.998;9.116;2023-05-10T06:56:26;10.93;;;9.93;;
33327;SDS011;19692;52.998;9.116;2023-05-10T06:58:52;11.23;;;10.13;;
33327;SDS011;19692;52.998;9.116;2023-05-10T07:01:18;12.13;;;10.80;;
33327;SDS011;19692;52.998;9.116;2023-05-10T07:03:44;11.57;;;10.47;;
33327;SDS011;19692;52.998;9.116;2023-05-10T07:06:10;10.90;;;9.90;;
33327;SDS011;19692;52.998;9.116;2023-05-10T07:08:35;11.80;;;10.70;;
33327;SDS011;19692;52.998;9.116;2023-05-10T07:11:02;11.60;;;9.93;;
33327;SDS011;19692;52.998;9.116;2023-05-10T07:13:30;12.50;;;11.20;;
33327;SDS011;19692;52.998;9.116;2023-05-10T07:15:56;12.50;;;11.30;;
33327;SDS011;19692;52.998;9.116;2023-05-10T07:18:23;12.50;;;11.30;;
33327;SDS011;19692;52.998;9.116;2023-05-10T07:20:49;12.73;;;11.13;;
33327;SDS011;19692;52.998;9.116;2023-05-10T07:23:16;12.83;;;11.43;;
33327;SDS011;19692;52.998;9.116;2023-05-10T07:25:44;13.27;;;11.93;;
33327;SDS011;19692;52.998;9.116;2023-05-10T07:28:11;13.03;;;11.73;;
33327;SDS011;19692;52.998;9.116;2023-05-10T07:30:38;13.67;;;12.03;;
33327;SDS011;19692;52.998;9.116;2023-05-10T07:33:05;13.17;;;11.57;;
33327;SDS011;19692;52.998;9.116;2023-05-10T07:35:30;13.33;;;11.97;;
33327;SDS011;19692;52.998;9.116;2023-05-10T07:37:56;13.47;;;12.10;;
33327;SDS011;19692;52.998;9.116;2023-05-10T07:40:22;13.27;;;11.93;;
33327;SDS011;19692;52.998;9.116;2023-05-10T07:42:48;15.27;;;12.67;;
33327;SDS011;19692;52.998;9.116;2023-05-10T07:45:14;14.23;;;12.70;;
33327;SDS011;19692;52.998;9.116;2023-05-10T07:47:39;13.47;;;12.00;;
33327;SDS011;19692;52.998;9.116;2023-05-10T07:50:05;13.60;;;12.20;;
33327;SDS011;19692;52.998;9.116;2023-05-10T07:52:32;12.93;;;11.63;;
33327;SDS011;19692;52.998;9.116;2023-05-10T07:54:58;14.93;;;12.47;;
33327;SDS011;19692;52.998;9.116;2023-05-10T07:57:24;13.93;;;12.53;;
33327;SDS011;19692;52.998;9.116;2023-05-10T07:59:49;12.93;;;11.63;;
33327;SDS011;19692;52.998;9.116;2023-05-10T08:02:15;13.73;;;12.33;;
33327;SDS011;19692;52.998;9.116;2023-05-10T08:04:41;15.43;;;12.80;;
33327;SDS011;19692;52.998;9.116;2023-05-10T08:07:06;13.87;;;12.57;;
33327;SDS011;19692;52.998;9.116;2023-05-10T08:09:32;14.67;;;13.23;;
33327;SDS011;19692;52.998;9.116;2023-05-10T08:11:58;14.03;;;12.63;;
33327;SDS011;19692;52.998;9.116;2023-05-10T08:14:25;14.43;;;12.20;;
33327;SDS011;19692;52.998;9.116;2023-05-10T08:16:53;13.27;;;11.90;;
33327;SDS011;19692;52.998;9.116;2023-05-10T08:19:19;15.30;;;11.90;;
33327;SDS011;19692;52.998;9.116;2023-05-10T08:21:46;13.23;;;12.00;;
33327;SDS011;19692;52.998;9.116;2023-05-10T08:24:12;12.97;;;11.77;;
33327;SDS011;19692;52.998;9.116;2023-05-10T08:26:38;12.83;;;11.57;;
33327;SDS011;19692;52.998;9.116;2023-05-10T08:29:03;12.90;;;11.73;;
33327;SDS011;19692;52.998;9.116;2023-05-10T08:31:29;13.93;;;12.60;;
33327;SDS011;19692;52.998;9.116;2023-05-10T08:33:55;12.77;;;11.57;;
33327;SDS011;19692;52.998;9.116;2023-05-10T08:36:21;14.07;;;12.67;;
33327;SDS011;19692;52.998;9.116;2023-05-10T08:38:52;12.07;;;10.87;;
33327;SDS011;19692;52.998;9.116;2023-05-10T08:41:22;13.07;;;11.77;;
33327;SDS011;19692;52.998;9.116;2023-05-10T08:43:52;13.00;;;11.70;;
33327;SDS011;19692;52.998;9.116;2023-05-10T08:46:20;12.63;;;11.37;;
33327;SDS011;19692;52.998;9.116;2023-05-10T08:48:48;12.90;;;11.53;;
33327;SDS011;19692;52.998;9.116;2023-05-10T08:51:20;12.20;;;11.10;;
33327;SDS011;19692;52.998;9.116;2023-05-10T08:53:51;11.77;;;10.57;;
33327;SDS011;19692;52.998;9.116;2023-05-10T08:56:17;13.13;;;12.03;;
33327;SDS011;19692;52.998;9.116;2023-05-10T08:58:45;13.33;;;12.03;;
33327;SDS011;19692;52.998;9.116;2023-05-10T09:01:11;11.63;;;10.63;;
33327;SDS011;19692;52.998;9.116;2023-05-10T09:03:38;13.00;;;11.70;;
33327;SDS011;19692;52.998;9.116;2023-05-10T09:06:05;13.10;;;11.80;;
33327;SDS011;19692;52.998;9.116;2023-05-10T09:08:31;11.53;;;10.43;;
33327;SDS011;19692;52.998;9.116;2023-05-10T09:10:58;9.63;;;8.83;;
33327;SDS011;19692;52.998;9.116;2023-05-10T09:13:26;9.47;;;8.60;;
33327;SDS011;19692;52.998;9.116;2023-05-10T09:15:52;9.40;;;8.50;;
33327;SDS011;19692;52.998;9.116;2023-05-10T09:18:18;9.10;;;8.30;;
33327;SDS011;19692;52.998;9.116;2023-05-10T09:20:44;8.57;;;7.80;;
33327;SDS011;19692;52.998;9.116;2023-05-10T09:23:10;8.20;;;7.50;;
33327;SDS011;19692;52.998;9.116;2023-05-10T09:25:36;7.83;;;7.17;;
33327;SDS011;19692;52.998;9.116;2023-05-10T09:28:05;8.27;;;7.57;;
33327;SDS011;19692;52.998;9.116;2023-05-10T09:30:33;7.07;;;6.47;;
33327;SDS011;19692;52.998;9.116;2023-05-10T09:32:59;6.30;;;5.80;;
33327;SDS011;19692;52.998;9.116;2023-05-10T09:35:27;5.60;;;5.10;;
33327;SDS011;19692;52.998;9.116;2023-05-10T09:37:56;5.50;;;5.00;;
33327;SDS011;19692;52.998;9.116;2023-05-10T09:40:26;4.80;;;4.40;;
33327;SDS011;19692;52.998;9.116;2023-05-10T09:43:04;4.90;;;4.50;;
33327;SDS011;19692;52.998;9.116;2023-05-10T09:45:33;4.47;;;4.07;;
33327;SDS011;19692;52.998;9.116;2023-05-10T09:48:00;4.03;;;3.73;;
33327;SDS011;19692;52.998;9.116;2023-05-10T09:50:28;3.63;;;3.33;;
33327;SDS011;19692;52.998;9.116;2023-05-10T09:53:00;3.37;;;3.07;;
33327;SDS011;19692;52.998;9.116;2023-05-10T09:58:04;3.80;;;3.50;;
33327;SDS011;19692;52.998;9.116;2023-05-10T10:00:35;4.10;;;3.67;;
33327;SDS011;19692;52.998;9.116;2023-05-10T10:03:02;4.07;;;3.67;;
33327;SDS011;19692;52.998;9.116;2023-05-10T10:05:29;4.60;;;4.20;;
33327;SDS011;19692;52.998;9.116;2023-05-10T10:08:00;5.37;;;4.40;;
33327;SDS011;19692;52.998;9.116;2023-05-10T10:10:31;5.23;;;4.83;;
33327;SDS011;19692;52.998;9.116;2023-05-10T10:12:58;5.17;;;4.60;;
33327;SDS011;19692;52.998;9.116;2023-05-10T10:15:24;4.07;;;3.67;;
33327;SDS011;19692;52.998;9.116;2023-05-10T10:17:51;4.00;;;3.70;;
33327;SDS011;19692;52.998;9.116;2023-05-10T10:20:19;5.73;;;4.30;;
33327;SDS011;19692;52.998;9.116;2023-05-10T10:22:47;5.27;;;4.77;;
33327;SDS011;19692;52.998;9.116;2023-05-10T10:25:14;5.33;;;4.83;;
33327;SDS011;19692;52.998;9.116;2023-05-10T10:27:49;5.93;;;4.47;;
33327;SDS011;19692;52.998;9.116;2023-05-10T10:30:47;4.27;;;3.63;;
33327;SDS011;19692;52.998;9.116;2023-05-10T10:36:04;4.57;;;3.20;;
33327;SDS011;19692;52.998;9.116;2023-05-10T10:38:38;4.83;;;3.30;;
33327;SDS011;19692;52.998;9.116;2023-05-10T10:41:28;3.70;;;3.10;;
33327;SDS011;19692;52.998;9.116;2023-05-10T10:52:27;4.50;;;3.50;;
33327;SDS011;19692;52.998;9.116;2023-05-10T10:55:11;6.20;;;4.70;;
33327;SDS011;19692;52.998;9.116;2023-05-10T11:03:11;5.23;;;4.73;;
33327;SDS011;19692;52.998;9.116;2023-05-10T11:05:49;5.57;;;4.67;;
33327;SDS011;19692;52.998;9.116;2023-05-10T11:08:32;6.80;;;5.00;;
33327;SDS011;19692;52.998;9.116;2023-05-10T11:11:05;5.17;;;4.67;;
33327;SDS011;19692;52.998;9.116;2023-05-10T11:13:39;6.53;;;4.70;;
33327;SDS011;19692;52.998;9.116;2023-05-10T11:16:10;4.93;;;4.33;;
33327;SDS011;19692;52.998;9.116;2023-05-10T11:18:38;4.73;;;3.73;;
33327;SDS011;19692;52.998;9.116;2023-05-10T11:21:04;3.63;;;3.33;;
33327;SDS011;19692;52.998;9.116;2023-05-10T11:26:11;3.97;;;3.53;;
33327;SDS011;19692;52.998;9.116;2023-05-10T11:28:44;4.67;;;3.53;;
33327;SDS011;19692;52.998;9.116;2023-05-10T11:31:15;5.20;;;4.10;;
33327;SDS011;19692;52.998;9.116;2023-05-10T11:33:45;4.10;;;3.03;;
33327;SDS011;19692;52.998;9.116;2023-05-10T11:36:24;2.67;;;2.47;;
33327;SDS011;19692;52.998;9.116;2023-05-10T11:38:52;5.37;;;2.60;;
33327;SDS011;19692;52.998;9.116;2023-05-10T11:41:20;2.90;;;2.60;;
33327;SDS011;19692;52.998;9.116;2023-05-10T11:43:49;3.53;;;2.60;;
33327;SDS011;19692;52.998;9.116;2023-05-10T11:46:17;5.17;;;3.30;;
33327;SDS011;19692;52.998;9.116;2023-05-10T11:48:45;3.30;;;3.00;;
33327;SDS011;19692;52.998;9.116;2023-05-10T11:51:15;3.10;;;2.80;;
33327;SDS011;19692;52.998;9.116;2023-05-10T11:53:45;3.27;;;2.90;;
33327;SDS011;19692;52.998;9.116;2023-05-10T11:56:11;3.13;;;2.83;;
33327;SDS011;19692;52.998;9.116;2023-05-10T11:58:37;4.37;;;3.17;;
33327;SDS011;19692;52.998;9.116;2023-05-10T12:01:05;3.80;;;3.50;;
33327;SDS011;19692;52.998;9.116;2023-05-10T12:03:33;4.03;;;3.23;;
33327;SDS011;19692;52.998;9.116;2023-05-10T12:05:59;3.53;;;3.20;;
33327;SDS011;19692;52.998;9.116;2023-05-10T12:08:27;3.50;;;3.20;;
33327;SDS011;19692;52.998;9.116;2023-05-10T12:11:04;4.40;;;3.97;;
33327;SDS011;19692;52.998;9.116;2023-05-10T12:13:32;3.53;;;2.87;;
33327;SDS011;19692;52.998;9.116;2023-05-10T12:16:12;3.10;;;2.80;;
33327;SDS011;19692;52.998;9.116;2023-05-10T12:18:42;3.77;;;3.40;;
33327;SDS011;19692;52.998;9.116;2023-05-10T12:21:10;4.10;;;3.30;;
33327;SDS011;19692;52.998;9.116;2023-05-10T12:23:37;4.10;;;3.13;;
33327;SDS011;19692;52.998;9.116;2023-05-10T12:26:03;3.63;;;3.07;;
33327;SDS011;19692;52.998;9.116;2023-05-10T12:28:30;3.17;;;2.60;;
33327;SDS011;19692;52.998;9.116;2023-05-10T12:30:57;2.30;;;2.10;;
33327;SDS011;19692;52.998;9.116;2023-05-10T12:33:24;2.07;;;1.93;;
33327;SDS011;19692;52.998;9.116;2023-05-10T12:35:51;2.67;;;2.43;;
33327;SDS011;19692;52.998;9.116;2023-05-10T12:41:03;3.70;;;2.37;;
33327;SDS011;19692;52.998;9.116;2023-05-10T12:43:36;2.90;;;2.60;;
33327;SDS011;19692;52.998;9.116;2023-05-10T12:48:37;1.87;;;1.30;;
33327;SDS011;19692;52.998;9.116;2023-05-10T12:51:05;1.00;;;1.00;;
33327;SDS011;19692;52.998;9.116;2023-05-10T12:53:41;1.53;;;1.30;;
33327;SDS011;19692;52.998;9.116;2023-05-10T12:56:10;1.00;;;1.00;;
33327;SDS011;19692;52.998;9.116;2023-05-10T12:58:36;1.10;;;1.00;;
33327;SDS011;19692;52.998;9.116;2023-05-10T13:01:04;1.10;;;1.10;;
33327;SDS011;19692;52.998;9.116;2023-05-10T13:03:30;1.73;;;1.63;;
33327;SDS011;19692;52.998;9.116;2023-05-10T13:05:56;2.10;;;2.00;;
33327;SDS011;19692;52.998;9.116;2023-05-10T13:08:21;2.10;;;2.00;;
33327;SDS011;19692;52.998;9.116;2023-05-10T13:10:47;2.40;;;2.20;;
33327;SDS011;19692;52.998;9.116;2023-05-10T13:13:13;2.10;;;2.00;;
33327;SDS011;19692;52.998;9.116;2023-05-10T13:15:40;2.40;;;2.20;;
33327;SDS011;19692;52.998;9.116;2023-05-10T13:18:06;2.37;;;2.20;;
33327;SDS011;19692;52.998;9.116;2023-05-10T13:20:32;2.20;;;2.00;;
33327;SDS011;19692;52.998;9.116;2023-05-10T13:22:57;2.30;;;2.10;;
33327;SDS011;19692;52.998;9.116;2023-05-10T13:25:23;2.77;;;2.57;;
33327;SDS011;19692;52.998;9.116;2023-05-10T13:27:49;2.30;;;2.20;;
33327;SDS011;19692;52.998;9.116;2023-05-10T13:30:15;2.23;;;2.13;;
33327;SDS011;19692;52.998;9.116;2023-05-10T13:32:40;2.20;;;2.00;;
33327;SDS011;19692;52.998;9.116;2023-05-10T13:35:09;3.17;;;2.00;;
33327;SDS011;19692;52.998;9.116;2023-05-10T13:37:35;1.60;;;1.50;;
33327;SDS011;19692;52.998;9.116;2023-05-10T13:40:02;1.70;;;1.40;;
33327;SDS011;19692;52.998;9.116;2023-05-10T13:42:29;1.30;;;1.20;;
33327;SDS011;19692;52.998;9.116;2023-05-10T13:44:56;1.40;;;1.30;;
33327;SDS011;19692;52.998;9.116;2023-05-10T13:47:22;1.23;;;1.13;;
33327;SDS011;19692;52.998;9.116;2023-05-10T13:49:48;1.83;;;1.43;;
33327;SDS011;19692;52.998;9.116;2023-05-10T13:52:13;2.33;;;1.50;;
33327;SDS011;19692;52.998;9.116;2023-05-10T13:54:39;1.50;;;1.40;;
33327;SDS011;19692;52.998;9.116;2023-05-10T13:57:05;1.30;;;1.20;;
33327;SDS011;19692;52.998;9.116;2023-05-10T13:59:31;1.53;;;1.20;;
33327;SDS011;19692;52.998;9.116;2023-05-10T14:01:58;1.50;;;1.40;;
33327;SDS011;19692;52.998;9.116;2023-05-10T14:04:24;1.40;;;1.30;;
33327;SDS011;19692;52.998;9.116;2023-05-10T14:06:50;2.13;;;1.30;;
33327;SDS011;19692;52.998;9.116;2023-05-10T14:09:17;1.53;;;1.43;;
33327;SDS011;19692;52.998;9.116;2023-05-10T14:11:43;1.80;;;1.70;;
33327;SDS011;19692;52.998;9.116;2023-05-10T14:14:09;2.87;;;1.50;;
33327;SDS011;19692;52.998;9.116;2023-05-10T14:16:35;1.57;;;1.47;;
33327;SDS011;19692;52.998;9.116;2023-05-10T14:19:01;1.70;;;1.60;;
33327;SDS011;19692;52.998;9.116;2023-05-10T14:21:27;1.70;;;1.60;;
33327;SDS011;19692;52.998;9.116;2023-05-10T14:23:55;1.70;;;1.60;;
33327;SDS011;19692;52.998;9.116;2023-05-10T14:26:22;1.70;;;1.60;;
33327;SDS011;19692;52.998;9.116;2023-05-10T14:28:47;1.97;;;1.87;;
33327;SDS011;19692;52.998;9.116;2023-05-10T14:31:14;2.50;;;1.83;;
33327;SDS011;19692;52.998;9.116;2023-05-10T14:33:41;3.40;;;1.80;;
33327;SDS011;19692;52.998;9.116;2023-05-10T14:36:08;1.80;;;1.70;;
33327;SDS011;19692;52.998;9.116;2023-05-10T14:38:34;3.97;;;2.00;;
33327;SDS011;19692;52.998;9.116;2023-05-10T14:40:59;2.27;;;2.10;;
33327;SDS011;19692;52.998;9.116;2023-05-10T14:43:25;1.73;;;1.63;;
33327;SDS011;19692;52.998;9.116;2023-05-10T14:45:52;1.77;;;1.67;;
33327;SDS011;19692;52.998;9.116;2023-05-10T14:48:18;1.77;;;1.67;;
33327;SDS011;19692;52.998;9.116;2023-05-10T14:50:44;1.70;;;1.50;;
33327;SDS011;19692;52.998;9.116;2023-05-10T14:53:11;2.10;;;1.90;;
33327;SDS011;19692;52.998;9.116;2023-05-10T14:55:36;2.43;;;1.70;;
33327;SDS011;19692;52.998;9.116;2023-05-10T14:58:03;2.20;;;1.87;;
33327;SDS011;19692;52.998;9.116;2023-05-10T15:00:29;3.30;;;1.70;;
33327;SDS011;19692;52.998;9.116;2023-05-10T15:02:56;2.00;;;1.90;;
33327;SDS011;19692;52.998;9.116;2023-05-10T15:05:22;3.90;;;3.13;;
33327;SDS011;19692;52.998;9.116;2023-05-10T15:07:48;1.93;;;1.80;;
33327;SDS011;19692;52.998;9.116;2023-05-10T15:10:14;3.10;;;2.00;;
33327;SDS011;19692;52.998;9.116;2023-05-10T15:12:40;2.30;;;2.10;;
33327;SDS011;19692;52.998;9.116;2023-05-10T15:15:06;6.17;;;4.47;;
33327;SDS011;19692;52.998;9.116;2023-05-10T15:17:34;2.23;;;1.90;;
33327;SDS011;19692;52.998;9.116;2023-05-10T15:20:00;1.97;;;1.87;;